createdAt,value
2024-03-04T00:00:34.749Z,13.02
2024-03-04T00:03:02.828Z,11.68
2024-03-04T00:05:30.546Z,13.52
2024-03-04T00:07:58.346Z,13.43
2024-03-04T00:10:26.048Z,17.20
2024-03-04T00:12:53.783Z,15.63
2024-03-04T00:15:21.412Z,17.23
2024-03-04T00:17:51.337Z,14.13
2024-03-04T00:20:19.483Z,17.77
2024-03-04T00:22:48.574Z,16.65
2024-03-04T00:25:17.292Z,14.35
2024-03-04T00:27:45.675Z,16.23
2024-03-04T00:30:14.233Z,17.23
2024-03-04T00:32:42.065Z,15.57
2024-03-04T00:35:12.035Z,16.27
2024-03-04T00:37:39.778Z,19.48
2024-03-04T00:40:09.518Z,14.02
2024-03-04T00:42:39.371Z,20.45
2024-03-04T00:45:07.970Z,14.77
2024-03-04T00:47:35.659Z,17.77
2024-03-04T00:50:03.928Z,16.00
2024-03-04T00:52:33.007Z,14.85
2024-03-04T00:55:02.058Z,15.85
2024-03-04T00:57:29.702Z,16.08
2024-03-04T00:59:58.398Z,18.45
2024-03-04T01:02:26.013Z,15.80
2024-03-04T01:04:53.682Z,17.38
2024-03-04T01:07:21.410Z,18.25
2024-03-04T01:09:50.391Z,17.35
2024-03-04T01:12:18.121Z,18.88
2024-03-04T01:14:45.760Z,21.40
2024-03-04T01:17:18.034Z,18.35
2024-03-04T01:19:47.768Z,17.30
2024-03-04T01:22:17.570Z,17.33
2024-03-04T01:24:45.726Z,21.02
2024-03-04T01:27:15.511Z,27.15
2024-03-04T01:29:43.491Z,23.95
2024-03-04T01:32:11.642Z,25.88
2024-03-04T01:34:41.270Z,27.10
2024-03-04T01:37:09.248Z,28.30
2024-03-04T01:39:37.316Z,26.92
2024-03-04T01:42:05.073Z,29.50
2024-03-04T01:44:36.875Z,32.97
2024-03-04T01:47:06.825Z,29.40
2024-03-04T01:49:37.393Z,34.35
2024-03-04T01:52:07.008Z,32.65
2024-03-04T01:54:37.193Z,34.60
2024-03-04T01:57:05.335Z,40.15
2024-03-04T01:59:35.332Z,41.53
2024-03-04T02:02:07.418Z,36.53
2024-03-04T02:04:35.759Z,40.97
2024-03-04T02:07:04.037Z,39.90
2024-03-04T02:09:32.691Z,39.45
2024-03-04T02:12:00.658Z,39.95
2024-03-04T02:14:28.449Z,41.03
2024-03-04T02:16:57.415Z,45.92
2024-03-04T02:19:25.232Z,42.40
2024-03-04T02:21:57.235Z,44.75
2024-03-04T02:24:26.269Z,46.00
2024-03-04T02:26:54.369Z,46.65
2024-03-04T02:29:21.967Z,49.63
2024-03-04T02:31:50.193Z,51.85
2024-03-04T02:34:18.652Z,52.05
2024-03-04T02:36:46.450Z,52.00
2024-03-04T02:39:14.326Z,53.55
2024-03-04T02:41:43.270Z,51.97
2024-03-04T02:44:10.885Z,56.95
2024-03-04T02:46:41.248Z,60.35
2024-03-04T02:49:08.988Z,61.70
2024-03-04T02:51:36.709Z,60.92
2024-03-04T02:54:04.937Z,59.50
2024-03-04T02:56:32.541Z,61.40
2024-03-04T02:59:01.740Z,60.88
2024-03-04T03:01:29.567Z,62.65
2024-03-04T03:03:57.344Z,65.82
2024-03-04T03:06:26.528Z,61.03
2024-03-04T03:08:54.197Z,64.65
2024-03-04T03:11:21.840Z,64.10
2024-03-04T03:13:49.495Z,62.67
2024-03-04T03:16:21.907Z,69.57
2024-03-04T03:18:50.312Z,62.78
2024-03-04T03:21:18.609Z,61.15
2024-03-04T03:23:47.541Z,64.45
2024-03-04T03:26:15.148Z,63.22
2024-03-04T03:28:42.962Z,62.85
2024-03-04T03:31:11.439Z,61.20
2024-03-04T03:33:40.528Z,62.38
2024-03-04T03:36:08.690Z,62.30
2024-03-04T03:38:36.514Z,71.55
2024-03-04T03:41:05.191Z,64.30
2024-03-04T03:43:32.961Z,63.45
2024-03-04T03:46:02.470Z,61.20
2024-03-04T03:48:30.974Z,60.30
2024-03-04T03:51:00.219Z,62.28
2024-03-04T03:53:27.863Z,63.65
2024-03-04T03:55:55.495Z,64.40
2024-03-04T03:58:23.245Z,58.50
2024-03-04T04:00:50.990Z,56.63
2024-03-04T04:03:18.887Z,56.58
2024-03-04T04:05:46.797Z,51.92
2024-03-04T04:08:15.870Z,50.40
2024-03-04T04:10:43.696Z,51.75
2024-03-04T04:13:11.797Z,52.20
2024-03-04T04:15:40.030Z,53.50
2024-03-04T04:18:07.835Z,50.80
2024-03-04T04:20:35.540Z,51.17
2024-03-04T04:23:03.236Z,51.63
2024-03-04T04:25:32.898Z,53.75
2024-03-04T04:28:01.381Z,52.38
2024-03-04T04:30:29.061Z,52.47
2024-03-04T04:32:56.759Z,46.50
2024-03-04T04:35:24.406Z,51.63
2024-03-04T04:37:52.058Z,48.72
2024-03-04T04:40:20.492Z,49.30
2024-03-04T04:42:49.575Z,49.53
2024-03-04T04:45:18.629Z,46.90
2024-03-04T04:47:46.386Z,44.55
2024-03-04T04:50:14.603Z,38.83
2024-03-04T04:52:42.391Z,43.08
2024-03-04T04:55:11.993Z,40.22
2024-03-04T04:57:40.520Z,42.30
2024-03-04T05:00:13.493Z,39.88
2024-03-04T05:02:42.135Z,37.45
2024-03-04T05:05:10.356Z,41.75
2024-03-04T05:07:39.359Z,40.35
2024-03-04T05:10:08.350Z,40.50
2024-03-04T05:12:36.005Z,38.85
2024-03-04T05:15:05.293Z,40.65
2024-03-04T05:17:34.287Z,43.13
2024-03-04T05:20:02.043Z,44.17
2024-03-04T05:22:29.730Z,41.70
2024-03-04T05:24:57.760Z,45.70
2024-03-04T05:27:28.042Z,45.17
2024-03-04T05:29:57.272Z,43.55
2024-03-04T05:32:25.240Z,44.35
2024-03-04T05:34:54.192Z,41.72
2024-03-04T05:37:22.789Z,40.13
2024-03-04T05:39:52.140Z,42.33
2024-03-04T05:42:19.822Z,37.38
2024-03-04T05:44:47.584Z,42.97
2024-03-04T05:47:15.881Z,39.70
2024-03-04T05:49:43.558Z,41.40
2024-03-04T05:52:12.763Z,42.70
2024-03-04T05:54:40.484Z,39.03
2024-03-04T05:57:08.205Z,37.03
2024-03-04T05:59:35.844Z,39.17
2024-03-04T06:02:03.642Z,42.25
2024-03-04T06:04:32.760Z,37.95
2024-03-04T06:07:02.861Z,41.60
2024-03-04T06:09:32.015Z,42.00
2024-03-04T06:12:01.512Z,42.08
2024-03-04T06:14:29.581Z,43.25
2024-03-04T06:16:57.306Z,37.70
2024-03-04T06:19:25.096Z,39.50
2024-03-04T06:22:04.741Z,35.28
2024-03-04T06:24:37.285Z,34.22
2024-03-04T06:27:05.385Z,42.03
2024-03-04T06:29:34.865Z,38.60
2024-03-04T06:32:02.611Z,40.95
2024-03-04T06:34:31.310Z,43.67
2024-03-04T06:36:59.322Z,39.80
2024-03-04T06:39:28.652Z,46.75
2024-03-04T06:41:57.770Z,42.63
2024-03-04T06:44:25.420Z,42.58
2024-03-04T06:46:53.108Z,46.30
2024-03-04T06:49:20.954Z,44.75
2024-03-04T06:51:48.700Z,42.55
2024-03-04T06:54:16.720Z,45.75
2024-03-04T06:56:44.536Z,38.50
2024-03-04T06:59:13.462Z,31.05
2024-03-04T07:01:41.221Z,30.85
2024-03-04T07:04:09.067Z,25.67
2024-03-04T07:06:36.768Z,29.42
2024-03-04T07:09:05.150Z,26.63
2024-03-04T07:11:32.828Z,25.38
2024-03-04T07:14:00.419Z,27.25
2024-03-04T07:16:29.446Z,26.45
2024-03-04T07:18:57.115Z,24.02
2024-03-04T07:21:24.930Z,26.33
2024-03-04T07:23:52.739Z,28.60
2024-03-04T07:26:21.631Z,22.85
2024-03-04T07:28:49.502Z,23.63
2024-03-04T07:31:17.538Z,24.60
2024-03-04T07:33:47.705Z,26.83
2024-03-04T07:36:17.410Z,27.25
2024-03-04T07:38:45.432Z,24.38
2024-03-04T07:41:13.072Z,26.30
2024-03-04T07:43:42.164Z,25.80
2024-03-04T07:46:10.335Z,26.08
2024-03-04T07:48:38.002Z,28.48
2024-03-04T07:51:07.566Z,27.80
2024-03-04T07:53:35.224Z,24.50
2024-03-04T07:56:02.970Z,27.65
2024-03-04T07:58:30.686Z,26.80
2024-03-04T08:01:01.069Z,26.73
2024-03-04T08:03:28.960Z,32.88
2024-03-04T08:05:56.803Z,42.15
2024-03-04T08:08:25.788Z,37.78
2024-03-04T08:10:53.743Z,34.00
2024-03-04T08:13:21.578Z,24.90
2024-03-04T08:15:50.049Z,28.45
2024-03-04T08:18:17.867Z,32.00
2024-03-04T08:20:45.768Z,28.45
2024-03-04T08:23:13.452Z,30.85
2024-03-04T08:25:42.526Z,26.30
2024-03-04T08:28:19.584Z,29.02
2024-03-04T08:30:52.045Z,26.08
2024-03-04T08:33:19.705Z,32.25
2024-03-04T08:35:47.361Z,30.33
2024-03-04T08:38:15.104Z,32.13
2024-03-04T08:40:44.217Z,31.58
2024-03-04T08:43:12.033Z,29.08
2024-03-04T08:45:39.699Z,29.10
2024-03-04T08:48:09.332Z,29.08
2024-03-04T08:50:37.170Z,28.08
2024-03-04T08:53:05.242Z,30.13
2024-03-04T08:55:32.874Z,29.50
2024-03-04T08:58:01.983Z,30.73
2024-03-04T09:00:29.898Z,31.15
2024-03-04T09:02:57.999Z,27.42
2024-03-04T09:05:25.635Z,31.55
2024-03-04T09:07:53.315Z,30.17
2024-03-04T09:10:20.989Z,29.63
2024-03-04T09:12:48.700Z,29.60
2024-03-04T09:15:18.691Z,29.52
2024-03-04T09:17:46.467Z,30.17
2024-03-04T09:20:14.279Z,26.35
2024-03-04T09:22:42.258Z,31.27
2024-03-04T09:25:09.342Z,26.55
2024-03-04T09:27:37.625Z,27.15
2024-03-04T09:30:07.961Z,28.35
2024-03-04T09:32:37.181Z,27.38
2024-03-04T09:35:05.892Z,25.17
2024-03-04T09:37:33.637Z,28.65
2024-03-04T09:40:01.848Z,27.27
2024-03-04T09:42:32.048Z,29.08
2024-03-04T09:45:00.125Z,28.42
2024-03-04T09:47:28.787Z,28.27
2024-03-04T09:49:58.361Z,28.15
2024-03-04T09:52:30.625Z,25.83
2024-03-04T09:55:02.047Z,27.45
2024-03-04T09:57:30.533Z,28.75
2024-03-04T09:59:59.454Z,28.10
2024-03-04T10:02:27.314Z,26.95
2024-03-04T10:04:55.607Z,26.50
2024-03-04T10:07:25.193Z,25.73
2024-03-04T10:09:55.429Z,22.75
2024-03-04T10:12:23.594Z,24.45
2024-03-04T10:15:07.109Z,25.83
2024-03-04T10:17:34.945Z,26.13
2024-03-04T10:20:04.467Z,26.73
2024-03-04T10:22:37.121Z,26.10
2024-03-04T10:25:06.251Z,26.77
2024-03-04T10:27:34.753Z,29.45
2024-03-04T10:30:11.137Z,27.05
2024-03-04T10:32:39.493Z,25.30
2024-03-04T10:35:08.363Z,28.27
2024-03-04T10:37:37.447Z,26.02
2024-03-04T10:40:06.479Z,27.92
2024-03-04T10:42:34.184Z,26.83
2024-03-04T10:45:02.113Z,25.92
2024-03-04T10:47:30.147Z,25.98
2024-03-04T10:49:57.809Z,29.25
2024-03-04T10:52:25.457Z,28.42
2024-03-04T10:54:54.987Z,26.60
2024-03-04T10:57:29.745Z,26.80
2024-03-04T10:59:58.822Z,29.15
2024-03-04T11:02:34.220Z,28.23
2024-03-04T11:05:03.376Z,27.00
2024-03-04T11:07:32.972Z,33.53
2024-03-04T11:10:07.226Z,26.08
2024-03-04T11:12:35.231Z,29.08
2024-03-04T11:15:08.399Z,26.55
2024-03-04T11:17:38.266Z,26.45
2024-03-04T11:20:09.100Z,33.35
2024-03-04T11:22:38.652Z,31.30
2024-03-04T11:25:08.937Z,31.02
2024-03-04T11:27:37.254Z,26.20
2024-03-04T11:30:06.992Z,28.48
2024-03-04T11:32:34.830Z,27.33
2024-03-04T11:35:07.289Z,26.17
2024-03-04T11:42:39.841Z,26.60
2024-03-04T11:45:08.900Z,27.80
2024-03-04T11:47:36.689Z,24.55
2024-03-04T11:50:07.113Z,23.83
2024-03-04T11:52:39.479Z,25.60
2024-03-04T11:55:10.676Z,23.55
2024-03-04T11:57:38.455Z,22.58
2024-03-04T12:00:11.062Z,24.20
2024-03-04T12:02:39.098Z,22.15
2024-03-04T12:05:07.750Z,24.85
2024-03-04T12:07:35.519Z,23.08
2024-03-04T12:10:12.987Z,24.02
2024-03-04T12:12:46.322Z,23.85
2024-03-04T12:15:14.001Z,25.75
2024-03-04T12:17:42.023Z,22.73
2024-03-04T12:20:11.363Z,20.38
2024-03-04T12:22:39.767Z,23.05
2024-03-04T12:25:09.777Z,23.85
2024-03-04T12:27:39.160Z,23.63
2024-03-04T12:30:15.569Z,20.95
2024-03-04T12:32:43.771Z,20.02
2024-03-04T12:35:18.694Z,21.20
2024-03-04T12:37:48.572Z,18.58
2024-03-04T12:40:16.996Z,20.20
2024-03-04T12:42:44.653Z,20.50
2024-03-04T12:45:13.942Z,19.75
2024-03-04T12:47:42.121Z,19.73
2024-03-04T12:50:11.363Z,22.33
2024-03-04T12:52:40.925Z,23.02
2024-03-04T12:55:14.580Z,20.30
2024-03-04T12:57:42.236Z,19.75
2024-03-04T13:00:13.969Z,18.00
2024-03-04T13:02:43.950Z,19.90
2024-03-04T13:05:11.994Z,20.70
2024-03-04T13:07:40.756Z,19.58
2024-03-04T13:10:10.759Z,21.67
2024-03-04T13:12:39.558Z,19.63
2024-03-04T13:15:09.071Z,23.70
2024-03-04T13:17:36.970Z,20.17
2024-03-04T13:20:10.243Z,20.80
2024-03-04T13:22:38.508Z,22.10
2024-03-04T13:25:07.838Z,21.65
2024-03-04T13:27:35.917Z,26.02
2024-03-04T13:30:04.476Z,20.98
2024-03-04T13:32:32.288Z,20.48
2024-03-04T13:35:00.002Z,20.10
2024-03-04T13:37:29.357Z,19.05
2024-03-04T13:39:57.647Z,22.58
2024-03-04T13:42:25.545Z,22.85
2024-03-04T13:44:53.210Z,19.13
2024-03-04T13:47:20.850Z,19.38
2024-03-04T13:49:49.684Z,22.05
2024-03-04T13:52:17.473Z,22.77
2024-03-04T13:54:46.573Z,19.40
2024-03-04T13:57:14.268Z,20.98
2024-03-04T13:59:41.915Z,20.73
2024-03-04T14:02:09.635Z,22.73
2024-03-04T14:04:37.406Z,21.52
2024-03-04T14:07:05.905Z,21.50
2024-03-04T14:09:33.774Z,24.67
2024-03-04T14:12:02.742Z,22.65
2024-03-04T14:14:30.353Z,23.20
2024-03-04T14:16:58.016Z,22.98
2024-03-04T14:19:25.701Z,23.10
2024-03-04T14:21:53.348Z,23.33
2024-03-04T14:24:21.449Z,20.70
2024-03-04T14:26:49.119Z,22.48
2024-03-04T14:29:18.157Z,20.58
2024-03-04T14:31:45.839Z,24.15
2024-03-04T14:34:13.705Z,22.90
2024-03-04T14:36:41.369Z,21.00
2024-03-04T14:39:12.209Z,20.70
2024-03-04T14:41:40.276Z,23.42
2024-03-04T14:44:08.296Z,23.02
2024-03-04T14:46:37.378Z,20.13
2024-03-04T14:49:05.165Z,23.77
2024-03-04T14:51:34.085Z,21.75
2024-03-04T14:54:01.730Z,25.13
2024-03-04T14:56:31.209Z,22.10
2024-03-04T14:58:59.040Z,21.33
2024-03-04T15:01:26.717Z,22.92
2024-03-04T15:03:55.671Z,25.85
2024-03-04T15:06:23.269Z,25.30
2024-03-04T15:08:51.795Z,23.63
2024-03-04T15:11:19.755Z,30.70
2024-03-04T15:13:47.714Z,27.58
2024-03-04T15:16:17.153Z,29.70
2024-03-04T15:18:44.852Z,32.05
2024-03-04T15:21:13.939Z,24.35
2024-03-04T15:23:41.562Z,29.35
2024-03-04T15:26:09.165Z,28.52
2024-03-04T15:28:36.891Z,26.52
2024-03-04T15:31:04.801Z,32.72
2024-03-04T15:33:32.653Z,30.23
2024-03-04T15:36:09.877Z,29.42
2024-03-04T15:38:46.636Z,27.83
2024-03-04T15:41:14.297Z,31.55
2024-03-04T15:43:42.130Z,26.50
2024-03-04T15:46:09.911Z,33.05
2024-03-04T15:48:37.630Z,27.13
2024-03-04T15:51:07.009Z,30.85
2024-03-04T15:53:35.432Z,30.55
2024-03-04T15:56:05.428Z,28.17
2024-03-04T15:58:33.146Z,28.73
2024-03-04T16:01:02.493Z,26.35
2024-03-04T16:03:33.248Z,23.92
2024-03-04T16:06:03.448Z,25.75
2024-03-04T16:08:31.171Z,28.90
2024-03-04T16:10:59.047Z,22.67
2024-03-04T16:13:28.570Z,25.38
2024-03-04T16:15:59.202Z,26.38
2024-03-04T16:18:27.303Z,25.63
2024-03-04T16:20:54.899Z,25.88
2024-03-04T16:23:22.596Z,24.88
2024-03-04T16:25:50.273Z,26.85
2024-03-04T16:28:18.725Z,24.27
2024-03-04T16:30:49.112Z,23.98
2024-03-04T16:33:16.866Z,22.20
2024-03-04T16:35:44.580Z,22.23
2024-03-04T16:38:12.832Z,21.02
2024-03-04T16:40:41.689Z,22.33
2024-03-04T16:43:09.477Z,22.30
2024-03-04T16:45:37.812Z,23.38
2024-03-04T16:48:07.478Z,19.30
2024-03-04T16:50:35.141Z,24.48
2024-03-04T16:53:02.927Z,21.13
2024-03-04T16:55:34.686Z,23.45
2024-03-04T16:58:04.395Z,21.70
2024-03-04T17:00:32.095Z,21.60
2024-03-04T17:02:59.854Z,18.75
2024-03-04T17:05:28.861Z,18.80
2024-03-04T17:07:56.630Z,19.85
2024-03-04T17:10:24.290Z,21.65
2024-03-04T17:12:53.558Z,18.95
2024-03-04T17:15:22.759Z,19.20
2024-03-04T17:17:52.604Z,18.17
2024-03-04T17:20:22.464Z,18.63
2024-03-04T17:22:51.522Z,20.17
2024-03-04T17:25:19.344Z,21.00
2024-03-04T17:27:47.049Z,24.92
2024-03-04T17:30:15.008Z,21.52
2024-03-04T17:32:42.717Z,20.27
2024-03-04T17:35:10.514Z,17.42
2024-03-04T17:37:38.202Z,21.75
2024-03-04T17:40:09.579Z,19.85
2024-03-04T17:42:37.290Z,19.92
2024-03-04T17:45:05.764Z,19.20
2024-03-04T17:47:33.444Z,22.17
2024-03-04T17:50:01.116Z,21.13
2024-03-04T17:52:28.865Z,19.83
2024-03-04T17:54:56.596Z,19.25
2024-03-04T17:57:25.964Z,20.35
2024-03-04T17:59:53.698Z,21.35
2024-03-04T18:02:22.693Z,21.58
2024-03-04T18:04:51.019Z,19.00
2024-03-04T18:07:18.798Z,19.38
2024-03-04T18:09:47.528Z,18.58
2024-03-04T18:12:15.207Z,21.58
2024-03-04T18:14:44.896Z,16.85
2024-03-04T18:17:12.721Z,15.18
2024-03-04T18:19:40.391Z,15.20
2024-03-04T18:22:09.076Z,18.60
2024-03-04T18:24:37.625Z,20.40
2024-03-04T18:27:05.650Z,17.95
2024-03-04T18:29:33.838Z,18.98
2024-03-04T18:32:02.850Z,20.58
2024-03-04T18:34:30.761Z,17.85
2024-03-04T18:36:59.569Z,18.80
2024-03-04T18:39:28.475Z,18.35
2024-03-04T18:41:57.934Z,18.88
2024-03-04T18:44:25.610Z,18.20
2024-03-04T18:46:53.331Z,20.02
2024-03-04T18:49:22.523Z,18.73
2024-03-04T18:51:50.204Z,21.40
2024-03-04T18:54:18.710Z,22.30
2024-03-04T18:56:47.314Z,20.00
2024-03-04T18:59:15.018Z,23.42
2024-03-04T19:01:42.756Z,19.67
2024-03-04T19:04:10.456Z,21.63
2024-03-04T19:06:39.567Z,22.50
2024-03-04T19:09:07.267Z,24.95
2024-03-04T19:11:35.176Z,23.17
2024-03-04T19:14:02.922Z,21.27
2024-03-04T19:16:30.704Z,20.33
2024-03-04T19:18:58.418Z,20.52
2024-03-04T19:21:27.397Z,22.25
2024-03-04T19:23:56.596Z,23.63
2024-03-04T19:26:24.226Z,24.63
2024-03-04T19:28:52.852Z,23.27
2024-03-04T19:31:21.505Z,26.75
2024-03-04T19:33:50.946Z,26.75
2024-03-04T19:36:18.694Z,23.23
2024-03-04T19:38:46.439Z,21.90
2024-03-04T19:41:20.071Z,25.30
2024-03-04T19:43:47.800Z,24.75
2024-03-04T19:46:22.433Z,27.05
2024-03-04T19:48:51.743Z,24.63
2024-03-04T19:51:22.859Z,24.25
2024-03-04T19:53:50.732Z,26.33
2024-03-04T19:56:19.868Z,22.15
2024-03-04T19:58:48.043Z,23.00
2024-03-04T20:01:16.520Z,26.40
2024-03-04T20:03:45.009Z,24.33
2024-03-04T20:06:13.171Z,22.15
2024-03-04T20:08:41.972Z,27.52
2024-03-04T20:11:11.941Z,24.88
2024-03-04T20:13:42.047Z,28.38
2024-03-04T20:16:10.492Z,27.95
2024-03-04T20:18:38.295Z,25.88
2024-03-04T20:21:07.875Z,27.33
2024-03-04T20:23:37.012Z,27.95
2024-03-04T20:26:05.168Z,22.05
2024-03-04T20:28:34.928Z,26.50
2024-03-04T20:31:04.733Z,26.17
2024-03-04T20:33:33.449Z,25.50
2024-03-04T20:36:02.254Z,23.95
2024-03-04T20:38:29.895Z,26.33
2024-03-04T20:40:58.060Z,22.67
2024-03-04T20:43:25.928Z,27.25
2024-03-04T20:45:54.223Z,27.63
2024-03-04T20:48:25.705Z,26.40
2024-03-04T20:50:54.310Z,28.48
2024-03-04T20:53:22.187Z,23.33
2024-03-04T20:55:50.133Z,26.95
2024-03-04T20:58:17.889Z,27.05
2024-03-04T21:00:46.098Z,24.48
2024-03-04T21:03:13.900Z,26.17
2024-03-04T21:05:42.853Z,25.92
2024-03-04T21:08:10.782Z,24.83
2024-03-04T21:10:38.463Z,28.98
2024-03-04T21:13:06.237Z,27.85
2024-03-04T21:15:34.181Z,23.90
2024-03-04T21:18:01.931Z,27.25
2024-03-04T21:20:29.709Z,26.98
2024-03-04T21:23:03.740Z,26.30
2024-03-04T21:25:31.720Z,26.08
2024-03-04T21:27:59.420Z,29.38
2024-03-04T21:30:28.955Z,31.48
2024-03-04T21:32:56.594Z,29.50
2024-03-04T21:35:24.376Z,30.83
2024-03-04T21:37:52.085Z,26.65
2024-03-04T21:40:21.252Z,27.90
2024-03-04T21:42:48.974Z,27.48
2024-03-04T21:45:16.630Z,24.50
2024-03-04T21:47:45.438Z,27.58
2024-03-04T21:50:13.165Z,25.67
2024-03-04T21:52:42.013Z,28.42
2024-03-04T21:55:12.176Z,28.38
2024-03-04T21:57:41.575Z,27.15
2024-03-04T22:00:15.733Z,25.52
2024-03-04T22:02:44.354Z,24.92
2024-03-04T22:05:13.574Z,26.10
2024-03-04T22:07:42.150Z,27.40
2024-03-04T22:10:12.059Z,25.60
2024-03-04T22:12:41.404Z,26.35
2024-03-04T22:15:11.042Z,27.77
2024-03-04T22:17:39.022Z,27.52
2024-03-04T22:20:10.995Z,28.13
2024-03-04T22:22:39.257Z,26.25
2024-03-04T22:25:07.994Z,27.00
2024-03-04T22:27:35.909Z,29.63
2024-03-04T22:30:05.607Z,26.70
2024-03-04T22:32:33.284Z,27.20
2024-03-04T22:35:01.934Z,29.60
2024-03-04T22:37:31.616Z,25.70
2024-03-04T22:39:59.274Z,26.33
2024-03-04T22:42:26.889Z,23.25
2024-03-04T22:44:54.660Z,25.73
2024-03-04T22:47:24.699Z,23.58
2024-03-04T22:49:52.582Z,27.80
2024-03-04T22:52:20.433Z,29.48
2024-03-04T22:54:49.080Z,26.92
2024-03-04T22:57:16.836Z,23.88
2024-03-04T22:59:45.132Z,23.77
2024-03-04T23:02:13.035Z,24.77
2024-03-04T23:04:42.216Z,22.48
2024-03-04T23:07:10.015Z,25.55
2024-03-04T23:09:39.279Z,26.40
2024-03-04T23:12:10.045Z,29.25
2024-03-04T23:14:38.407Z,26.45
2024-03-04T23:17:07.251Z,29.23
2024-03-04T23:19:35.266Z,27.85
2024-03-04T23:22:04.347Z,26.17
2024-03-04T23:24:31.967Z,29.17
2024-03-04T23:26:59.614Z,24.48
2024-03-04T23:29:27.288Z,25.38
2024-03-04T23:31:55.441Z,26.90
2024-03-04T23:34:23.165Z,26.08
2024-03-04T23:36:51.496Z,28.75
2024-03-04T23:39:24.693Z,27.35
2024-03-04T23:41:52.647Z,28.83
2024-03-04T23:44:20.762Z,25.33
2024-03-04T23:46:48.544Z,28.30
2024-03-04T23:49:16.306Z,30.08
2024-03-04T23:51:43.889Z,28.48
2024-03-04T23:54:11.679Z,25.67
2024-03-04T23:56:42.646Z,27.58
2024-03-04T23:59:10.398Z,29.27
